sensor_id;sensor_type;location;lat;lon;timestamp;P1;P2;P0
46381;PMS5003;66809;52.974;-2.514;2023-05-20T00:01:49;20.75;17.816666666666666;
46381;PMS5003;66809;52.974;-2.514;2023-05-20T00:03:49;20.683333333333334;17.766666666666666;
46381;PMS5003;66809;52.974;-2.514;2023-05-20T00:05:49;20.6;17.65;
46381;PMS5003;66809;52.974;-2.514;2023-05-20T00:07:49;20.583333333333332;17.616666666666667;
46381;PMS5003;66809;52.974;-2.514;2023-05-20T00:09:49;20.383333333333333;17.5;
46381;PMS5003;66809;52.974;-2.514;2023-05-20T00:11:49;20.266666666666666;17.333333333333332;
46381;PMS5003;66809;52.974;-2.514;2023-05-20T00:13:49;20.283333333333335;17.45;
46381;PMS5003;66809;52.974;-2.514;2023-05-20T00:15:49;20.183333333333334;17.383333333333333;
46381;PMS5003;66809;52.974;-2.514;2023-05-20T00:17:50;20.033333333333335;17.283333333333335;
46381;PMS5003;66809;52.974;-2.514;2023-05-20T00:19:49;20.066666666666666;17.333333333333332;
46381;PMS5003;66809;52.974;-2.514;2023-05-20T00:21:49;20.083333333333332;17.333333333333332;
46381;PMS5003;66809;52.974;-2.514;2023-05-20T00:23:50;19.866666666666667;17.183333333333334;
46381;PMS5003;66809;52.974;-2.514;2023-05-20T00:25:49;19.55;16.983333333333334;
46381;PMS5003;66809;52.974;-2.514;2023-05-20T00:27:49;19.3;16.9;
46381;PMS5003;66809;52.974;-2.514;2023-05-20T00:29:49;18.966666666666665;16.55;
46381;PMS5003;66809;52.974;-2.514;2023-05-20T00:31:49;18.5;16.166666666666668;
46381;PMS5003;66809;52.974;-2.514;2023-05-20T00:33:49;18.016666666666666;15.8;
46381;PMS5003;66809;52.974;-2.514;2023-05-20T00:35:49;17.5;15.366666666666667;
46381;PMS5003;66809;52.974;-2.514;2023-05-20T00:37:49;17.0;15.1;
46381;PMS5003;66809;52.974;-2.514;2023-05-20T00:39:49;16.766666666666666;14.866666666666667;
46381;PMS5003;66809;52.974;-2.514;2023-05-20T00:41:50;16.666666666666668;14.75;
46381;PMS5003;66809;52.974;-2.514;2023-05-20T00:43:52;16.583333333333332;14.65;
46381;PMS5003;66809;52.974;-2.514;2023-05-20T00:45:50;16.5;14.566666666666666;
46381;PMS5003;66809;52.974;-2.514;2023-05-20T00:47:49;16.283333333333335;14.366666666666667;
46381;PMS5003;66809;52.974;-2.514;2023-05-20T00:49:49;16.133333333333333;14.2;
46381;PMS5003;66809;52.974;-2.514;2023-05-20T00:51:49;15.866666666666667;14.033333333333333;
46381;PMS5003;66809;52.974;-2.514;2023-05-20T00:53:49;15.616666666666667;13.816666666666666;
46381;PMS5003;66809;52.974;-2.514;2023-05-20T00:55:49;15.5;13.75;
46381;PMS5003;66809;52.974;-2.514;2023-05-20T00:57:49;15.3;13.616666666666667;
46381;PMS5003;66809;52.974;-2.514;2023-05-20T00:59:49;15.083333333333334;13.45;
46381;PMS5003;66809;52.974;-2.514;2023-05-20T01:01:49;14.95;13.35;
46381;PMS5003;66809;52.974;-2.514;2023-05-20T01:03:50;15.033333333333333;13.383333333333333;
46381;PMS5003;66809;52.974;-2.514;2023-05-20T01:05:49;15.15;13.483333333333333;
46381;PMS5003;66809;52.974;-2.514;2023-05-20T01:07:49;15.05;13.416666666666666;
46381;PMS5003;66809;52.974;-2.514;2023-05-20T01:09:49;15.033333333333333;13.416666666666666;
46381;PMS5003;66809;52.974;-2.514;2023-05-20T01:11:49;15.1;13.45;
46381;PMS5003;66809;52.974;-2.514;2023-05-20T01:13:50;14.933333333333334;13.283333333333333;
46381;PMS5003;66809;52.974;-2.514;2023-05-20T01:15:49;14.916666666666666;13.266666666666667;
46381;PMS5003;66809;52.974;-2.514;2023-05-20T01:17:50;15.016666666666667;13.3;
46381;PMS5003;66809;52.974;-2.514;2023-05-20T01:19:49;14.85;13.15;
46381;PMS5003;66809;52.974;-2.514;2023-05-20T01:21:49;14.783333333333333;13.1;
46381;PMS5003;66809;52.974;-2.514;2023-05-20T01:23:49;14.933333333333334;13.183333333333334;
46381;PMS5003;66809;52.974;-2.514;2023-05-20T01:25:49;15.05;13.283333333333333;
46381;PMS5003;66809;52.974;-2.514;2023-05-20T01:27:49;14.966666666666667;13.233333333333333;
46381;PMS5003;66809;52.974;-2.514;2023-05-20T01:29:50;14.983333333333333;13.283333333333333;
46381;PMS5003;66809;52.974;-2.514;2023-05-20T01:31:49;15.133333333333333;13.466666666666667;
46381;PMS5003;66809;52.974;-2.514;2023-05-20T01:33:50;15.216666666666667;13.566666666666666;
46381;PMS5003;66809;52.974;-2.514;2023-05-20T01:35:49;15.2;13.616666666666667;
46381;PMS5003;66809;52.974;-2.514;2023-05-20T01:37:49;15.133333333333333;13.516666666666667;
46381;PMS5003;66809;52.974;-2.514;2023-05-20T01:39:49;15.083333333333334;13.45;
46381;PMS5003;66809;52.974;-2.514;2023-05-20T01:41:49;15.0;13.383333333333333;
46381;PMS5003;66809;52.974;-2.514;2023-05-20T01:43:49;14.733333333333333;13.15;
46381;PMS5003;66809;52.974;-2.514;2023-05-20T01:45:49;14.7;13.15;
46381;PMS5003;66809;52.974;-2.514;2023-05-20T01:47:49;14.633333333333333;13.15;
46381;PMS5003;66809;52.974;-2.514;2023-05-20T01:49:49;14.65;13.25;
46381;PMS5003;66809;52.974;-2.514;2023-05-20T01:51:49;14.916666666666666;13.433333333333334;
46381;PMS5003;66809;52.974;-2.514;2023-05-20T01:53:49;15.216666666666667;13.65;
46381;PMS5003;66809;52.974;-2.514;2023-05-20T01:55:49;15.25;13.716666666666667;
46381;PMS5003;66809;52.974;-2.514;2023-05-20T01:57:49;15.333333333333334;13.783333333333333;
46381;PMS5003;66809;52.974;-2.514;2023-05-20T01:59:49;15.4;13.883333333333333;
46381;PMS5003;66809;52.974;-2.514;2023-05-20T02:01:49;15.433333333333334;13.95;
46381;PMS5003;66809;52.974;-2.514;2023-05-20T02:03:49;15.2;13.766666666666667;
46381;PMS5003;66809;52.974;-2.514;2023-05-20T02:05:49;15.05;13.65;
46381;PMS5003;66809;52.974;-2.514;2023-05-20T02:07:49;15.033333333333333;13.566666666666666;
46381;PMS5003;66809;52.974;-2.514;2023-05-20T02:09:49;15.083333333333334;13.616666666666667;
46381;PMS5003;66809;52.974;-2.514;2023-05-20T02:11:49;14.966666666666667;13.6;
46381;PMS5003;66809;52.974;-2.514;2023-05-20T02:13:49;14.9;13.5;
46381;PMS5003;66809;52.974;-2.514;2023-05-20T02:15:49;14.716666666666667;13.366666666666667;
46381;PMS5003;66809;52.974;-2.514;2023-05-20T02:17:49;14.566666666666666;13.333333333333334;
46381;PMS5003;66809;52.974;-2.514;2023-05-20T02:19:50;14.533333333333333;13.283333333333333;
46381;PMS5003;66809;52.974;-2.514;2023-05-20T02:21:49;14.283333333333333;13.083333333333334;
46381;PMS5003;66809;52.974;-2.514;2023-05-20T02:23:49;14.066666666666666;12.933333333333334;
46381;PMS5003;66809;52.974;-2.514;2023-05-20T02:25:49;14.166666666666666;13.016666666666667;
46381;PMS5003;66809;52.974;-2.514;2023-05-20T02:27:49;14.15;12.95;
46381;PMS5003;66809;52.974;-2.514;2023-05-20T02:29:49;14.3;13.083333333333334;
46381;PMS5003;66809;52.974;-2.514;2023-05-20T02:31:49;14.383333333333333;13.116666666666667;
46381;PMS5003;66809;52.974;-2.514;2023-05-20T02:33:49;14.633333333333333;13.333333333333334;
46381;PMS5003;66809;52.974;-2.514;2023-05-20T02:35:49;14.766666666666667;13.466666666666667;
46381;PMS5003;66809;52.974;-2.514;2023-05-20T02:37:49;14.916666666666666;13.6;
46381;PMS5003;66809;52.974;-2.514;2023-05-20T02:39:49;14.983333333333333;13.7;
46381;PMS5003;66809;52.974;-2.514;2023-05-20T02:41:50;14.95;13.716666666666667;
46381;PMS5003;66809;52.974;-2.514;2023-05-20T02:43:49;15.166666666666666;13.9;
46381;PMS5003;66809;52.974;-2.514;2023-05-20T02:45:49;15.25;13.983333333333333;
46381;PMS5003;66809;52.974;-2.514;2023-05-20T02:47:49;15.416666666666666;14.066666666666666;
46381;PMS5003;66809;52.974;-2.514;2023-05-20T02:49:49;15.3;13.95;
46381;PMS5003;66809;52.974;-2.514;2023-05-20T02:51:49;15.066666666666666;13.783333333333333;
46381;PMS5003;66809;52.974;-2.514;2023-05-20T02:53:49;14.833333333333334;13.616666666666667;
46381;PMS5003;66809;52.974;-2.514;2023-05-20T02:55:49;14.75;13.466666666666667;
46381;PMS5003;66809;52.974;-2.514;2023-05-20T02:57:49;14.816666666666666;13.5;
46381;PMS5003;66809;52.974;-2.514;2023-05-20T02:59:49;14.9;13.6;
46381;PMS5003;66809;52.974;-2.514;2023-05-20T03:01:49;14.866666666666667;13.6;
46381;PMS5003;66809;52.974;-2.514;2023-05-20T03:03:49;14.916666666666666;13.6;
46381;PMS5003;66809;52.974;-2.514;2023-05-20T03:05:49;14.966666666666667;13.616666666666667;
46381;PMS5003;66809;52.974;-2.514;2023-05-20T03:07:49;15.116666666666667;13.733333333333333;
46381;PMS5003;66809;52.974;-2.514;2023-05-20T03:09:49;15.216666666666667;13.85;
46381;PMS5003;66809;52.974;-2.514;2023-05-20T03:11:49;15.283333333333333;13.9;
46381;PMS5003;66809;52.974;-2.514;2023-05-20T03:13:49;15.333333333333334;13.966666666666667;
46381;PMS5003;66809;52.974;-2.514;2023-05-20T03:15:49;15.483333333333333;14.05;
46381;PMS5003;66809;52.974;-2.514;2023-05-20T03:17:49;15.516666666666667;14.066666666666666;
46381;PMS5003;66809;52.974;-2.514;2023-05-20T03:19:49;15.533333333333333;14.1;
46381;PMS5003;66809;52.974;-2.514;2023-05-20T03:21:49;15.65;14.183333333333334;
46381;PMS5003;66809;52.974;-2.514;2023-05-20T03:23:49;15.833333333333334;14.283333333333333;
46381;PMS5003;66809;52.974;-2.514;2023-05-20T03:25:49;15.683333333333334;14.15;
46381;PMS5003;66809;52.974;-2.514;2023-05-20T03:27:49;15.683333333333334;14.15;
46381;PMS5003;66809;52.974;-2.514;2023-05-20T03:29:49;15.55;14.066666666666666;
46381;PMS5003;66809;52.974;-2.514;2023-05-20T03:31:49;15.233333333333333;13.816666666666666;
46381;PMS5003;66809;52.974;-2.514;2023-05-20T03:33:49;14.966666666666667;13.55;
46381;PMS5003;66809;52.974;-2.514;2023-05-20T03:35:49;14.816666666666666;13.316666666666666;
46381;PMS5003;66809;52.974;-2.514;2023-05-20T03:37:49;14.65;13.183333333333334;
46381;PMS5003;66809;52.974;-2.514;2023-05-20T03:39:49;14.633333333333333;13.166666666666666;
46381;PMS5003;66809;52.974;-2.514;2023-05-20T03:41:49;14.7;13.2;
46381;PMS5003;66809;52.974;-2.514;2023-05-20T03:43:49;14.616666666666667;13.116666666666667;
46381;PMS5003;66809;52.974;-2.514;2023-05-20T03:45:49;14.633333333333333;13.1;
46381;PMS5003;66809;52.974;-2.514;2023-05-20T03:47:49;14.45;12.983333333333333;
46381;PMS5003;66809;52.974;-2.514;2023-05-20T03:49:49;14.533333333333333;13.05;
46381;PMS5003;66809;52.974;-2.514;2023-05-20T03:51:49;14.516666666666667;13.05;
46381;PMS5003;66809;52.974;-2.514;2023-05-20T03:53:49;14.466666666666667;13.016666666666667;
46381;PMS5003;66809;52.974;-2.514;2023-05-20T03:55:49;14.516666666666667;13.083333333333334;
46381;PMS5003;66809;52.974;-2.514;2023-05-20T03:57:50;14.3;12.95;
46381;PMS5003;66809;52.974;-2.514;2023-05-20T03:59:50;14.166666666666666;12.783333333333333;
46381;PMS5003;66809;52.974;-2.514;2023-05-20T04:01:49;14.116666666666667;12.7;
46381;PMS5003;66809;52.974;-2.514;2023-05-20T04:03:49;14.083333333333334;12.683333333333334;
46381;PMS5003;66809;52.974;-2.514;2023-05-20T04:05:49;13.966666666666667;12.616666666666667;
46381;PMS5003;66809;52.974;-2.514;2023-05-20T04:07:49;13.783333333333333;12.483333333333333;
46381;PMS5003;66809;52.974;-2.514;2023-05-20T04:09:49;13.7;12.383333333333333;
46381;PMS5003;66809;52.974;-2.514;2023-05-20T04:11:49;13.816666666666666;12.483333333333333;
46381;PMS5003;66809;52.974;-2.514;2023-05-20T04:13:49;14.0;12.65;
46381;PMS5003;66809;52.974;-2.514;2023-05-20T04:15:49;14.15;12.85;
46381;PMS5003;66809;52.974;-2.514;2023-05-20T04:17:49;14.05;12.75;
46381;PMS5003;66809;52.974;-2.514;2023-05-20T04:19:49;14.0;12.716666666666667;
46381;PMS5003;66809;52.974;-2.514;2023-05-20T04:21:49;13.966666666666667;12.733333333333333;
46381;PMS5003;66809;52.974;-2.514;2023-05-20T04:23:49;13.933333333333334;12.7;
46381;PMS5003;66809;52.974;-2.514;2023-05-20T04:25:49;13.916666666666666;12.683333333333334;
46381;PMS5003;66809;52.974;-2.514;2023-05-20T04:27:49;13.933333333333334;12.716666666666667;
46381;PMS5003;66809;52.974;-2.514;2023-05-20T04:29:49;13.766666666666667;12.566666666666666;
46381;PMS5003;66809;52.974;-2.514;2023-05-20T04:31:49;13.783333333333333;12.6;
46381;PMS5003;66809;52.974;-2.514;2023-05-20T04:33:49;13.716666666666667;12.533333333333333;
46381;PMS5003;66809;52.974;-2.514;2023-05-20T04:35:49;13.65;12.55;
46381;PMS5003;66809;52.974;-2.514;2023-05-20T04:37:50;13.8;12.666666666666666;
46381;PMS5003;66809;52.974;-2.514;2023-05-20T04:39:49;13.933333333333334;12.716666666666667;
46381;PMS5003;66809;52.974;-2.514;2023-05-20T04:41:49;13.916666666666666;12.666666666666666;
46381;PMS5003;66809;52.974;-2.514;2023-05-20T04:43:49;13.9;12.683333333333334;
46381;PMS5003;66809;52.974;-2.514;2023-05-20T04:45:49;13.916666666666666;12.7;
46381;PMS5003;66809;52.974;-2.514;2023-05-20T04:47:49;13.883333333333333;12.666666666666666;
46381;PMS5003;66809;52.974;-2.514;2023-05-20T04:49:49;13.85;12.633333333333333;
46381;PMS5003;66809;52.974;-2.514;2023-05-20T04:51:50;13.75;12.516666666666667;
46381;PMS5003;66809;52.974;-2.514;2023-05-20T04:53:49;13.633333333333333;12.383333333333333;
46381;PMS5003;66809;52.974;-2.514;2023-05-20T04:55:49;13.75;12.433333333333334;
46381;PMS5003;66809;52.974;-2.514;2023-05-20T04:57:50;13.9;12.516666666666667;
46381;PMS5003;66809;52.974;-2.514;2023-05-20T04:59:49;13.8;12.383333333333333;
46381;PMS5003;66809;52.974;-2.514;2023-05-20T05:01:49;13.95;12.5;
46381;PMS5003;66809;52.974;-2.514;2023-05-20T05:03:50;14.033333333333333;12.633333333333333;
46381;PMS5003;66809;52.974;-2.514;2023-05-20T05:05:49;14.216666666666667;12.8;
46381;PMS5003;66809;52.974;-2.514;2023-05-20T05:07:49;14.183333333333334;12.8;
46381;PMS5003;66809;52.974;-2.514;2023-05-20T05:09:49;14.05;12.683333333333334;
46381;PMS5003;66809;52.974;-2.514;2023-05-20T05:11:49;13.883333333333333;12.516666666666667;
46381;PMS5003;66809;52.974;-2.514;2023-05-20T05:13:49;13.7;12.366666666666667;
46381;PMS5003;66809;52.974;-2.514;2023-05-20T05:15:56;13.566666666666666;12.233333333333333;
46381;PMS5003;66809;52.974;-2.514;2023-05-20T05:17:49;13.55;12.216666666666667;
46381;PMS5003;66809;52.974;-2.514;2023-05-20T05:19:49;13.516666666666667;12.15;
46381;PMS5003;66809;52.974;-2.514;2023-05-20T05:21:49;13.466666666666667;12.083333333333334;
46381;PMS5003;66809;52.974;-2.514;2023-05-20T05:23:49;13.35;12.0;
46381;PMS5003;66809;52.974;-2.514;2023-05-20T05:25:50;13.233333333333333;11.9;
46381;PMS5003;66809;52.974;-2.514;2023-05-20T05:27:50;13.083333333333334;11.766666666666667;
46381;PMS5003;66809;52.974;-2.514;2023-05-20T05:29:49;12.966666666666667;11.65;
46381;PMS5003;66809;52.974;-2.514;2023-05-20T05:31:49;12.983333333333333;11.616666666666667;
46381;PMS5003;66809;52.974;-2.514;2023-05-20T05:33:49;12.883333333333333;11.55;
46381;PMS5003;66809;52.974;-2.514;2023-05-20T05:35:49;12.816666666666666;11.483333333333333;
46381;PMS5003;66809;52.974;-2.514;2023-05-20T05:37:49;12.566666666666666;11.3;
46381;PMS5003;66809;52.974;-2.514;2023-05-20T05:39:49;12.216666666666667;11.083333333333334;
46381;PMS5003;66809;52.974;-2.514;2023-05-20T05:41:49;12.083333333333334;11.016666666666667;
46381;PMS5003;66809;52.974;-2.514;2023-05-20T05:43:50;11.95;10.833333333333334;
46381;PMS5003;66809;52.974;-2.514;2023-05-20T05:45:49;11.666666666666666;10.616666666666667;
46381;PMS5003;66809;52.974;-2.514;2023-05-20T05:47:49;11.6;10.533333333333333;
46381;PMS5003;66809;52.974;-2.514;2023-05-20T05:49:49;11.4;10.366666666666667;
46381;PMS5003;66809;52.974;-2.514;2023-05-20T05:51:49;11.366666666666667;10.333333333333334;
46381;PMS5003;66809;52.974;-2.514;2023-05-20T05:53:49;11.433333333333334;10.4;
46381;PMS5003;66809;52.974;-2.514;2023-05-20T05:55:49;11.166666666666666;10.233333333333333;
46381;PMS5003;66809;52.974;-2.514;2023-05-20T05:57:49;10.933333333333334;10.066666666666666;
46381;PMS5003;66809;52.974;-2.514;2023-05-20T05:59:49;10.916666666666666;10.1;
46381;PMS5003;66809;52.974;-2.514;2023-05-20T06:01:49;10.7;9.966666666666667;
46381;PMS5003;66809;52.974;-2.514;2023-05-20T06:03:49;10.433333333333334;9.683333333333334;
46381;PMS5003;66809;52.974;-2.514;2023-05-20T06:05:49;10.266666666666667;9.533333333333333;
46381;PMS5003;66809;52.974;-2.514;2023-05-20T06:07:49;10.4;9.633333333333333;
46381;PMS5003;66809;52.974;-2.514;2023-05-20T06:09:49;10.4;9.666666666666666;
46381;PMS5003;66809;52.974;-2.514;2023-05-20T06:11:49;10.45;9.666666666666666;
46381;PMS5003;66809;52.974;-2.514;2023-05-20T06:13:49;10.633333333333333;9.883333333333333;
46381;PMS5003;66809;52.974;-2.514;2023-05-20T06:15:49;10.75;9.95;
46381;PMS5003;66809;52.974;-2.514;2023-05-20T06:17:49;11.05;10.183333333333334;
46381;PMS5003;66809;52.974;-2.514;2023-05-20T06:19:49;11.416666666666666;10.483333333333333;
46381;PMS5003;66809;52.974;-2.514;2023-05-20T06:21:49;11.766666666666667;10.816666666666666;
46381;PMS5003;66809;52.974;-2.514;2023-05-20T06:23:49;11.983333333333333;11.033333333333333;
46381;PMS5003;66809;52.974;-2.514;2023-05-20T06:25:49;12.35;11.366666666666667;
46381;PMS5003;66809;52.974;-2.514;2023-05-20T06:27:49;12.566666666666666;11.6;
46381;PMS5003;66809;52.974;-2.514;2023-05-20T06:29:49;12.95;11.95;
46381;PMS5003;66809;52.974;-2.514;2023-05-20T06:31:49;13.366666666666667;12.3;
46381;PMS5003;66809;52.974;-2.514;2023-05-20T06:33:49;13.9;12.65;
46381;PMS5003;66809;52.974;-2.514;2023-05-20T06:35:49;14.266666666666667;12.966666666666667;
46381;PMS5003;66809;52.974;-2.514;2023-05-20T06:37:49;14.55;13.2;
46381;PMS5003;66809;52.974;-2.514;2023-05-20T06:39:50;14.783333333333333;13.4;
46381;PMS5003;66809;52.974;-2.514;2023-05-20T06:41:49;15.0;13.6;
46381;PMS5003;66809;52.974;-2.514;2023-05-20T06:43:50;15.5;14.066666666666666;
46381;PMS5003;66809;52.974;-2.514;2023-05-20T06:45:49;15.733333333333333;14.3;
46381;PMS5003;66809;52.974;-2.514;2023-05-20T06:47:49;15.966666666666667;14.533333333333333;
46381;PMS5003;66809;52.974;-2.514;2023-05-20T06:49:49;16.266666666666666;14.816666666666666;
46381;PMS5003;66809;52.974;-2.514;2023-05-20T06:51:49;16.566666666666666;15.1;
46381;PMS5003;66809;52.974;-2.514;2023-05-20T06:53:49;16.833333333333332;15.35;
46381;PMS5003;66809;52.974;-2.514;2023-05-20T06:55:49;17.216666666666665;15.716666666666667;
46381;PMS5003;66809;52.974;-2.514;2023-05-20T06:57:49;17.633333333333333;16.083333333333332;
46381;PMS5003;66809;52.974;-2.514;2023-05-20T06:59:49;17.9;16.35;
46381;PMS5003;66809;52.974;-2.514;2023-05-20T07:01:49;18.3;16.683333333333334;
46381;PMS5003;66809;52.974;-2.514;2023-05-20T07:03:49;18.683333333333334;17.05;
46381;PMS5003;66809;52.974;-2.514;2023-05-20T07:05:49;19.083333333333332;17.4;
46381;PMS5003;66809;52.974;-2.514;2023-05-20T07:07:49;19.133333333333333;17.516666666666666;
46381;PMS5003;66809;52.974;-2.514;2023-05-20T07:09:50;19.366666666666667;17.683333333333334;
46381;PMS5003;66809;52.974;-2.514;2023-05-20T07:11:49;19.416666666666668;17.766666666666666;
46381;PMS5003;66809;52.974;-2.514;2023-05-20T07:13:49;19.566666666666666;17.883333333333333;
46381;PMS5003;66809;52.974;-2.514;2023-05-20T07:15:49;19.583333333333332;17.966666666666665;
46381;PMS5003;66809;52.974;-2.514;2023-05-20T07:17:49;19.5;17.933333333333334;
46381;PMS5003;66809;52.974;-2.514;2023-05-20T07:19:49;19.516666666666666;17.983333333333334;
46381;PMS5003;66809;52.974;-2.514;2023-05-20T07:21:49;19.283333333333335;17.8;
46381;PMS5003;66809;52.974;-2.514;2023-05-20T07:23:49;19.233333333333334;17.733333333333334;
46381;PMS5003;66809;52.974;-2.514;2023-05-20T07:25:49;19.066666666666666;17.516666666666666;
46381;PMS5003;66809;52.974;-2.514;2023-05-20T07:27:49;19.166666666666668;17.55;
46381;PMS5003;66809;52.974;-2.514;2023-05-20T07:29:49;19.15;17.566666666666666;
46381;PMS5003;66809;52.974;-2.514;2023-05-20T07:31:49;18.866666666666667;17.35;
46381;PMS5003;66809;52.974;-2.514;2023-05-20T07:33:50;18.6;17.233333333333334;
46381;PMS5003;66809;52.974;-2.514;2023-05-20T07:35:49;18.7;17.3;
46381;PMS5003;66809;52.974;-2.514;2023-05-20T07:37:49;18.733333333333334;17.35;
46381;PMS5003;66809;52.974;-2.514;2023-05-20T07:39:50;18.966666666666665;17.5;
46381;PMS5003;66809;52.974;-2.514;2023-05-20T07:41:49;18.966666666666665;17.466666666666665;
46381;PMS5003;66809;52.974;-2.514;2023-05-20T07:43:49;18.816666666666666;17.4;
46381;PMS5003;66809;52.974;-2.514;2023-05-20T07:45:49;18.933333333333334;17.466666666666665;
46381;PMS5003;66809;52.974;-2.514;2023-05-20T07:47:49;18.866666666666667;17.45;
46381;PMS5003;66809;52.974;-2.514;2023-05-20T07:49:49;19.116666666666667;17.616666666666667;
46381;PMS5003;66809;52.974;-2.514;2023-05-20T07:51:49;19.133333333333333;17.566666666666666;
46381;PMS5003;66809;52.974;-2.514;2023-05-20T07:53:49;19.15;17.566666666666666;
46381;PMS5003;66809;52.974;-2.514;2023-05-20T07:55:49;19.033333333333335;17.45;
46381;PMS5003;66809;52.974;-2.514;2023-05-20T07:57:49;18.983333333333334;17.416666666666668;
46381;PMS5003;66809;52.974;-2.514;2023-05-20T07:59:49;18.85;17.25;
46381;PMS5003;66809;52.974;-2.514;2023-05-20T08:01:49;18.733333333333334;17.133333333333333;
46381;PMS5003;66809;52.974;-2.514;2023-05-20T08:03:49;18.566666666666666;16.966666666666665;
46381;PMS5003;66809;52.974;-2.514;2023-05-20T08:05:49;18.433333333333334;16.866666666666667;
46381;PMS5003;66809;52.974;-2.514;2023-05-20T08:07:49;18.266666666666666;16.65;
46381;PMS5003;66809;52.974;-2.514;2023-05-20T08:09:49;18.033333333333335;16.45;
46381;PMS5003;66809;52.974;-2.514;2023-05-20T08:11:49;17.816666666666666;16.266666666666666;
46381;PMS5003;66809;52.974;-2.514;2023-05-20T08:13:49;17.483333333333334;15.933333333333334;
46381;PMS5003;66809;52.974;-2.514;2023-05-20T08:15:51;17.266666666666666;15.7;
46381;PMS5003;66809;52.974;-2.514;2023-05-20T08:17:49;17.133333333333333;15.583333333333334;
46381;PMS5003;66809;52.974;-2.514;2023-05-20T08:19:49;16.883333333333333;15.366666666666667;
46381;PMS5003;66809;52.974;-2.514;2023-05-20T08:21:49;16.783333333333335;15.216666666666667;
46381;PMS5003;66809;52.974;-2.514;2023-05-20T08:23:49;16.583333333333332;15.016666666666667;
46381;PMS5003;66809;52.974;-2.514;2023-05-20T08:25:49;16.45;14.95;
46381;PMS5003;66809;52.974;-2.514;2023-05-20T08:27:49;16.016666666666666;14.6;
46381;PMS5003;66809;52.974;-2.514;2023-05-20T08:29:49;15.766666666666667;14.333333333333334;
46381;PMS5003;66809;52.974;-2.514;2023-05-20T08:31:49;15.616666666666667;14.216666666666667;
46381;PMS5003;66809;52.974;-2.514;2023-05-20T08:33:50;15.483333333333333;14.1;
46381;PMS5003;66809;52.974;-2.514;2023-05-20T08:35:49;15.15;13.8;
46381;PMS5003;66809;52.974;-2.514;2023-05-20T08:37:49;15.05;13.7;
46381;PMS5003;66809;52.974;-2.514;2023-05-20T08:39:49;14.733333333333333;13.433333333333334;
46381;PMS5003;66809;52.974;-2.514;2023-05-20T08:41:49;14.583333333333334;13.316666666666666;
46381;PMS5003;66809;52.974;-2.514;2023-05-20T08:43:49;14.433333333333334;13.166666666666666;
46381;PMS5003;66809;52.974;-2.514;2023-05-20T08:45:49;14.233333333333333;13.0;
46381;PMS5003;66809;52.974;-2.514;2023-05-20T08:47:49;14.2;12.933333333333334;
46381;PMS5003;66809;52.974;-2.514;2023-05-20T08:49:49;13.816666666666666;12.633333333333333;
46381;PMS5003;66809;52.974;-2.514;2023-05-20T08:51:49;13.716666666666667;12.633333333333333;
46381;PMS5003;66809;52.974;-2.514;2023-05-20T08:53:49;13.65;12.6;
46381;PMS5003;66809;52.974;-2.514;2023-05-20T08:55:52;13.583333333333334;12.55;
46381;PMS5003;66809;52.974;-2.514;2023-05-20T08:57:49;13.35;12.35;
46381;PMS5003;66809;52.974;-2.514;2023-05-20T08:59:49;13.4;12.35;
46381;PMS5003;66809;52.974;-2.514;2023-05-20T09:01:49;13.25;12.283333333333333;
46381;PMS5003;66809;52.974;-2.514;2023-05-20T09:03:49;13.8;12.733333333333333;
46381;PMS5003;66809;52.974;-2.514;2023-05-20T09:05:49;14.7;13.65;
46381;PMS5003;66809;52.974;-2.514;2023-05-20T09:07:49;15.433333333333334;14.416666666666666;
46381;PMS5003;66809;52.974;-2.514;2023-05-20T09:09:49;16.4;15.366666666666667;
46381;PMS5003;66809;52.974;-2.514;2023-05-20T09:11:49;17.483333333333334;16.416666666666668;
46381;PMS5003;66809;52.974;-2.514;2023-05-20T09:13:49;18.616666666666667;17.583333333333332;
46381;PMS5003;66809;52.974;-2.514;2023-05-20T09:15:50;18.716666666666665;17.566666666666666;
46381;PMS5003;66809;52.974;-2.514;2023-05-20T09:17:49;18.6;17.466666666666665;
46381;PMS5003;66809;52.974;-2.514;2023-05-20T09:19:49;18.55;17.45;
46381;PMS5003;66809;52.974;-2.514;2023-05-20T09:21:50;18.683333333333334;17.583333333333332;
46381;PMS5003;66809;52.974;-2.514;2023-05-20T09:23:49;18.733333333333334;17.683333333333334;
46381;PMS5003;66809;52.974;-2.514;2023-05-20T09:25:49;18.833333333333332;17.8;
46381;PMS5003;66809;52.974;-2.514;2023-05-20T09:27:50;19.083333333333332;18.0;
46381;PMS5003;66809;52.974;-2.514;2023-05-20T09:29:49;19.233333333333334;18.083333333333332;
46381;PMS5003;66809;52.974;-2.514;2023-05-20T09:31:49;19.3;18.15;